createdAt,value
2022-08-07T00:04:48.661Z,40.09
2022-08-07T00:10:04.928Z,39.81
2022-08-07T00:15:15.510Z,40.14
2022-08-07T00:20:30.002Z,39.85
2022-08-07T00:25:41.448Z,39.98
2022-08-07T00:30:44.476Z,40.00
2022-08-07T00:35:49.693Z,40.07
2022-08-07T00:40:53.988Z,40.05
2022-08-07T00:45:56.724Z,40.03
2022-08-07T00:50:59.666Z,40.11
2022-08-07T00:56:04.656Z,39.86
2022-08-07T01:01:17.504Z,39.88
2022-08-07T01:06:21.929Z,40.01
2022-08-07T01:12:09.280Z,39.63
2022-08-07T01:16:50.460Z,39.78
2022-08-07T01:21:57.125Z,39.91
2022-08-07T01:27:03.617Z,39.71
2022-08-07T01:32:12.467Z,39.79
2022-08-07T01:37:20.825Z,39.66
2022-08-07T01:42:38.538Z,39.61
2022-08-07T01:48:21.518Z,39.78
2022-08-07T01:53:20.807Z,39.70
2022-08-07T01:58:33.285Z,39.82
2022-08-07T02:03:48.940Z,39.92
2022-08-07T02:08:57.083Z,39.64
2022-08-07T02:14:03.180Z,39.66
2022-08-07T02:20:04.238Z,39.78
2022-08-07T02:24:35.976Z,39.66
2022-08-07T02:29:48.581Z,39.82
2022-08-07T02:34:58.903Z,39.95
2022-08-07T02:40:29.699Z,40.04
2022-08-07T02:45:58.270Z,39.80
2022-08-07T02:50:58.632Z,39.93
2022-08-07T02:56:11.266Z,39.98
2022-08-07T03:01:35.961Z,40.01
2022-08-07T03:06:45.961Z,40.13
2022-08-07T03:11:58.011Z,39.79
2022-08-07T03:17:08.675Z,39.86
2022-08-07T03:22:18.899Z,40.10
2022-08-07T03:27:30.815Z,39.95
2022-08-07T03:32:57.039Z,39.99
2022-08-07T03:38:05.251Z,40.24
2022-08-07T03:43:14.564Z,40.10
2022-08-07T03:48:22.424Z,40.40
2022-08-07T03:53:50.116Z,40.37
2022-08-07T03:59:08.794Z,40.26
2022-08-07T04:04:17.953Z,40.63
2022-08-07T04:09:24.504Z,40.67
2022-08-07T04:14:38.772Z,40.67
2022-08-07T04:19:52.270Z,40.37
2022-08-07T04:25:01.663Z,40.46
2022-08-07T04:30:20.928Z,40.58
2022-08-07T04:35:37.101Z,40.65
2022-08-07T04:40:52.418Z,40.47
2022-08-07T04:46:12.338Z,40.74
2022-08-07T04:51:29.494Z,40.78
2022-08-07T04:58:11.764Z,40.69
2022-08-07T05:02:16.930Z,40.62
2022-08-07T05:07:30.488Z,40.58
2022-08-07T05:12:46.414Z,40.42
2022-08-07T05:18:06.153Z,39.77
2022-08-07T05:23:16.568Z,39.07
2022-08-07T05:28:26.763Z,38.94
2022-08-07T05:33:36.892Z,38.73
2022-08-07T05:39:00.644Z,38.49
2022-08-07T05:44:11.799Z,38.27
2022-08-07T05:49:20.688Z,38.26
2022-08-07T05:54:30.707Z,38.42
2022-08-07T05:59:55.767Z,38.27
2022-08-07T06:05:05.023Z,38.24
2022-08-07T06:10:11.192Z,38.21
2022-08-07T06:15:19.893Z,38.20
2022-08-07T06:20:49.723Z,38.37
2022-08-07T06:25:54.298Z,38.42
2022-08-07T06:31:00.472Z,38.22
2022-08-07T06:36:13.077Z,37.68
2022-08-07T06:42:02.509Z,37.32
2022-08-07T06:46:53.770Z,37.83
2022-08-07T06:52:17.032Z,37.66
2022-08-07T06:57:39.636Z,37.29
2022-08-07T07:02:57.485Z,37.62
2022-08-07T07:08:06.748Z,37.68
2022-08-07T07:13:14.065Z,37.59
2022-08-07T07:18:37.669Z,37.77
2022-08-07T07:24:06.428Z,37.81
2022-08-07T07:29:40.434Z,37.82
2022-08-07T07:34:37.793Z,37.97
2022-08-07T07:39:52.554Z,38.02
2022-08-07T07:45:00.318Z,37.87
2022-08-07T07:50:33.643Z,38.17
2022-08-07T07:55:37.482Z,38.31
2022-08-07T08:00:53.768Z,38.14
2022-08-07T08:05:57.086Z,38.32
2022-08-07T08:11:01.618Z,38.11
2022-08-07T08:16:07.378Z,38.60
2022-08-07T08:21:55.731Z,38.44
2022-08-07T08:27:09.748Z,38.37
2022-08-07T08:32:18.636Z,38.16
2022-08-07T08:38:00.379Z,38.12
2022-08-07T08:42:57.600Z,38.06
2022-08-07T08:48:08.148Z,38.22
2022-08-07T08:53:19.213Z,38.23
2022-08-07T08:58:33.263Z,37.71
2022-08-07T09:03:52.985Z,37.45
2022-08-07T09:09:36.447Z,37.47
2022-08-07T09:14:58.953Z,37.67
2022-08-07T09:20:34.787Z,37.63
2022-08-07T09:25:54.572Z,37.45
2022-08-07T09:31:03.049Z,37.42
2022-08-07T09:36:12.733Z,37.00
2022-08-07T09:41:24.978Z,37.07
2022-08-07T09:47:51.999Z,36.90
2022-08-07T09:52:33.531Z,36.94
2022-08-07T09:57:55.143Z,36.73
2022-08-07T10:04:05.215Z,36.55
2022-08-07T10:09:08.990Z,36.99
2022-08-07T10:14:31.216Z,37.12
2022-08-07T10:20:03.100Z,37.28
2022-08-07T10:25:42.286Z,36.95
2022-08-07T10:30:57.060Z,37.34
2022-08-07T10:36:30.237Z,37.33
2022-08-07T10:41:57.668Z,37.41
2022-08-07T10:47:31.381Z,37.38
2022-08-07T10:52:55.699Z,37.72
2022-08-07T10:58:06.859Z,37.27
2022-08-07T11:03:17.281Z,37.25
2022-08-07T11:08:30.437Z,37.03
2022-08-07T11:14:44.810Z,37.09
2022-08-07T11:19:11.388Z,36.68
2022-08-07T11:24:20.800Z,36.91
2022-08-07T11:29:47.272Z,37.17
2022-08-07T11:34:52.370Z,37.01
2022-08-07T11:40:10.078Z,37.11
2022-08-07T11:45:20.324Z,36.76
2022-08-07T11:50:33.508Z,36.72
2022-08-07T11:56:09.718Z,36.38
2022-08-07T12:01:59.795Z,35.96
2022-08-07T12:07:02.381Z,36.04
2022-08-07T12:12:14.712Z,36.15
2022-08-07T12:17:21.978Z,36.50
2022-08-07T12:22:38.940Z,36.67
2022-08-07T12:28:09.041Z,37.11
2022-08-07T12:33:23.517Z,37.08
2022-08-07T12:38:42.507Z,37.11
2022-08-07T12:44:02.829Z,37.39
2022-08-07T12:49:25.358Z,37.50
2022-08-07T12:54:54.658Z,37.42
2022-08-07T13:00:01.180Z,37.71
2022-08-07T13:06:03.676Z,37.67
2022-08-07T13:10:51.871Z,37.89
2022-08-07T13:16:01.838Z,37.88
2022-08-07T13:21:10.812Z,37.93
2022-08-07T13:26:18.598Z,38.03
2022-08-07T13:31:32.102Z,38.03
2022-08-07T13:36:54.307Z,37.80
2022-08-07T13:41:57.551Z,37.93
2022-08-07T13:47:02.557Z,37.86
2022-08-07T13:52:32.107Z,37.73
2022-08-07T13:57:38.128Z,37.78
2022-08-07T14:02:51.069Z,37.84
2022-08-07T14:08:01.203Z,37.76
2022-08-07T14:13:05.106Z,37.64
2022-08-07T14:18:29.669Z,37.60
2022-08-07T14:24:01.661Z,37.62
2022-08-07T14:29:08.497Z,37.62
2022-08-07T14:34:30.771Z,37.72
2022-08-07T14:40:15.518Z,37.71
2022-08-07T14:45:21.780Z,37.70
2022-08-07T14:50:42.759Z,37.65
2022-08-07T15:06:39.852Z,37.68
2022-08-07T15:12:01.276Z,37.77
2022-08-07T15:17:12.454Z,37.58
2022-08-07T15:22:29.519Z,37.76
2022-08-07T15:27:36.780Z,37.91
2022-08-07T15:33:01.453Z,37.78
2022-08-07T15:38:17.678Z,38.03
2022-08-07T15:43:53.851Z,38.09
2022-08-07T15:59:44.143Z,38.01
2022-08-07T16:04:47.186Z,38.11
2022-08-07T16:09:52.981Z,37.99
2022-08-07T16:15:55.030Z,38.16
2022-08-07T16:20:55.255Z,38.20
2022-08-07T16:26:14.407Z,38.14
2022-08-07T16:31:51.899Z,37.89
2022-08-07T16:38:03.512Z,37.95
2022-08-07T16:43:05.217Z,37.95
2022-08-07T16:49:04.262Z,37.85
2022-08-07T16:54:38.468Z,37.81
2022-08-07T17:00:05.408Z,37.92
2022-08-07T17:06:19.903Z,38.02
2022-08-07T17:10:54.546Z,38.02
2022-08-07T17:16:04.255Z,37.94
2022-08-07T17:21:19.174Z,37.92
2022-08-07T17:26:35.875Z,37.72
2022-08-07T17:32:02.651Z,37.83
2022-08-07T17:38:08.423Z,37.67
2022-08-07T17:42:59.194Z,37.87
2022-08-07T17:48:10.379Z,37.78
2022-08-07T17:54:00.039Z,37.70
2022-08-07T17:58:59.350Z,37.93
2022-08-07T18:04:16.157Z,37.76
2022-08-07T18:10:05.248Z,37.71
2022-08-07T18:14:50.869Z,37.76
2022-08-07T18:21:10.553Z,37.87
2022-08-07T18:25:40.879Z,37.81
2022-08-07T18:30:52.671Z,37.38
2022-08-07T18:36:06.037Z,37.54
2022-08-07T18:41:16.754Z,37.42
2022-08-07T18:46:27.013Z,37.43
2022-08-07T18:52:35.317Z,37.39
2022-08-07T18:57:39.983Z,37.37
2022-08-07T19:02:42.508Z,37.35
2022-08-07T19:07:58.866Z,37.49
2022-08-07T19:13:11.867Z,37.44
2022-08-07T19:18:34.992Z,37.77
2022-08-07T19:23:58.135Z,37.74
2022-08-07T19:30:57.161Z,38.00
2022-08-07T19:34:33.924Z,37.80
2022-08-07T19:39:40.802Z,37.84
2022-08-07T19:45:08.651Z,38.21
2022-08-07T19:50:40.985Z,38.16
2022-08-07T19:55:56.752Z,38.04
2022-08-07T20:00:59.849Z,38.32
2022-08-07T20:06:06.025Z,38.31
2022-08-07T20:11:11.998Z,38.31
2022-08-07T20:16:34.911Z,38.48
2022-08-07T20:21:42.274Z,38.42
2022-08-07T20:26:54.457Z,38.65
2022-08-07T20:32:00.616Z,38.51
2022-08-07T20:37:05.542Z,38.83
2022-08-07T20:42:12.300Z,38.65
2022-08-07T20:47:25.012Z,38.78
2022-08-07T20:52:50.794Z,38.98
2022-08-07T20:58:04.123Z,38.85
2022-08-07T21:03:19.299Z,38.85
2022-08-07T21:08:36.953Z,38.97
2022-08-07T21:14:16.710Z,38.99
2022-08-07T21:19:14.066Z,39.01
2022-08-07T21:24:23.673Z,38.80
2022-08-07T21:29:33.473Z,39.09
2022-08-07T21:34:46.282Z,38.95
2022-08-07T21:39:56.605Z,38.96
2022-08-07T21:46:05.423Z,39.13
2022-08-07T21:50:33.515Z,39.11
2022-08-07T21:55:43.583Z,39.26
2022-08-07T22:00:54.081Z,39.62
2022-08-07T22:06:01.778Z,40.08
2022-08-07T22:11:06.033Z,40.18
2022-08-07T22:16:39.780Z,40.28
2022-08-07T22:22:05.291Z,40.20
2022-08-07T22:27:07.036Z,40.46
2022-08-07T22:32:20.390Z,40.49
2022-08-07T22:38:03.749Z,40.66
2022-08-07T22:43:10.916Z,40.43
2022-08-07T22:48:55.093Z,40.30
2022-08-07T22:54:06.830Z,40.39
2022-08-07T22:59:32.675Z,40.41
2022-08-07T23:04:58.594Z,40.48
2022-08-07T23:10:38.374Z,40.38
2022-08-07T23:16:06.452Z,40.37
2022-08-07T23:21:29.810Z,39.62
2022-08-07T23:26:50.242Z,39.09
2022-08-07T23:34:20.774Z,39.05
2022-08-07T23:38:01.494Z,38.67
2022-08-07T23:43:38.014Z,38.66
2022-08-07T23:48:58.746Z,38.62
2022-08-07T23:54:08.378Z,38.46
